sensor_id;sensor_type;location;lat;lon;timestamp;P1;durP1;ratioP1;P2;durP2;ratioP2
11797;SDS011;5956;51.428;6.682;2023-11-21T00:01:42;10.73;;;9.40;;
11797;SDS011;5956;51.428;6.682;2023-11-21T00:04:10;13.03;;;10.13;;
11797;SDS011;5956;51.428;6.682;2023-11-21T00:06:36;14.97;;;10.10;;
11797;SDS011;5956;51.428;6.682;2023-11-21T00:09:03;15.73;;;11.13;;
11797;SDS011;5956;51.428;6.682;2023-11-21T00:11:30;14.13;;;10.90;;
11797;SDS011;5956;51.428;6.682;2023-11-21T00:13:56;12.53;;;10.57;;
11797;SDS011;5956;51.428;6.682;2023-11-21T00:16:23;17.43;;;12.10;;
11797;SDS011;5956;51.428;6.682;2023-11-21T00:18:50;15.00;;;12.03;;
11797;SDS011;5956;51.428;6.682;2023-11-21T00:21:18;12.63;;;11.33;;
11797;SDS011;5956;51.428;6.682;2023-11-21T00:23:45;17.07;;;12.53;;
11797;SDS011;5956;51.428;6.682;2023-11-21T00:26:11;16.77;;;11.70;;
11797;SDS011;5956;51.428;6.682;2023-11-21T00:28:39;17.13;;;12.00;;
11797;SDS011;5956;51.428;6.682;2023-11-21T00:31:05;16.13;;;12.50;;
11797;SDS011;5956;51.428;6.682;2023-11-21T00:33:32;15.27;;;11.90;;
11797;SDS011;5956;51.428;6.682;2023-11-21T00:35:58;16.43;;;12.47;;
11797;SDS011;5956;51.428;6.682;2023-11-21T00:38:27;14.53;;;12.07;;
11797;SDS011;5956;51.428;6.682;2023-11-21T00:40:53;17.43;;;13.00;;
11797;SDS011;5956;51.428;6.682;2023-11-21T00:43:21;15.80;;;11.30;;
11797;SDS011;5956;51.428;6.682;2023-11-21T00:45:47;14.73;;;11.63;;
11797;SDS011;5956;51.428;6.682;2023-11-21T00:48:15;15.97;;;11.07;;
11797;SDS011;5956;51.428;6.682;2023-11-21T00:50:41;17.17;;;11.57;;
11797;SDS011;5956;51.428;6.682;2023-11-21T00:53:08;12.57;;;11.13;;
11797;SDS011;5956;51.428;6.682;2023-11-21T00:55:36;13.90;;;11.73;;
11797;SDS011;5956;51.428;6.682;2023-11-21T00:58:05;15.67;;;11.67;;
11797;SDS011;5956;51.428;6.682;2023-11-21T01:00:32;14.63;;;11.93;;
11797;SDS011;5956;51.428;6.682;2023-11-21T01:02:58;16.20;;;11.83;;
11797;SDS011;5956;51.428;6.682;2023-11-21T01:05:25;15.30;;;11.83;;
11797;SDS011;5956;51.428;6.682;2023-11-21T01:07:52;13.83;;;10.73;;
11797;SDS011;5956;51.428;6.682;2023-11-21T01:10:18;14.23;;;11.37;;
11797;SDS011;5956;51.428;6.682;2023-11-21T01:12:46;13.30;;;10.77;;
11797;SDS011;5956;51.428;6.682;2023-11-21T01:15:14;14.97;;;10.47;;
11797;SDS011;5956;51.428;6.682;2023-11-21T01:17:40;13.80;;;10.33;;
11797;SDS011;5956;51.428;6.682;2023-11-21T01:20:08;14.83;;;10.60;;
11797;SDS011;5956;51.428;6.682;2023-11-21T01:22:37;14.27;;;11.20;;
11797;SDS011;5956;51.428;6.682;2023-11-21T01:25:04;14.60;;;10.57;;
11797;SDS011;5956;51.428;6.682;2023-11-21T01:27:32;13.37;;;11.00;;
11797;SDS011;5956;51.428;6.682;2023-11-21T01:30:00;12.80;;;10.53;;
11797;SDS011;5956;51.428;6.682;2023-11-21T01:32:26;13.40;;;9.70;;
11797;SDS011;5956;51.428;6.682;2023-11-21T01:34:53;13.80;;;9.97;;
11797;SDS011;5956;51.428;6.682;2023-11-21T01:37:20;14.33;;;10.47;;
11797;SDS011;5956;51.428;6.682;2023-11-21T01:39:46;19.00;;;11.20;;
11797;SDS011;5956;51.428;6.682;2023-11-21T01:42:13;12.33;;;10.57;;
11797;SDS011;5956;51.428;6.682;2023-11-21T01:44:39;11.47;;;9.97;;
11797;SDS011;5956;51.428;6.682;2023-11-21T01:47:07;13.53;;;9.80;;
11797;SDS011;5956;51.428;6.682;2023-11-21T01:49:34;11.97;;;10.13;;
11797;SDS011;5956;51.428;6.682;2023-11-21T01:52:01;13.40;;;10.97;;
11797;SDS011;5956;51.428;6.682;2023-11-21T01:54:27;14.07;;;11.10;;
11797;SDS011;5956;51.428;6.682;2023-11-21T01:56:56;13.47;;;11.10;;
11797;SDS011;5956;51.428;6.682;2023-11-21T01:59:24;11.13;;;9.93;;
11797;SDS011;5956;51.428;6.682;2023-11-21T02:01:52;13.23;;;10.67;;
11797;SDS011;5956;51.428;6.682;2023-11-21T02:04:20;11.23;;;10.13;;
11797;SDS011;5956;51.428;6.682;2023-11-21T02:06:47;12.00;;;9.63;;
11797;SDS011;5956;51.428;6.682;2023-11-21T02:09:13;12.97;;;10.27;;
11797;SDS011;5956;51.428;6.682;2023-11-21T02:11:40;13.60;;;11.00;;
11797;SDS011;5956;51.428;6.682;2023-11-21T02:14:07;16.77;;;11.67;;
11797;SDS011;5956;51.428;6.682;2023-11-21T02:16:34;11.50;;;9.37;;
11797;SDS011;5956;51.428;6.682;2023-11-21T02:19:01;10.97;;;9.87;;
11797;SDS011;5956;51.428;6.682;2023-11-21T02:21:29;13.13;;;10.43;;
11797;SDS011;5956;51.428;6.682;2023-11-21T02:23:58;12.63;;;9.87;;
11797;SDS011;5956;51.428;6.682;2023-11-21T02:26:25;12.30;;;11.10;;
11797;SDS011;5956;51.428;6.682;2023-11-21T02:28:51;13.20;;;10.87;;
11797;SDS011;5956;51.428;6.682;2023-11-21T02:31:18;14.70;;;11.43;;
11797;SDS011;5956;51.428;6.682;2023-11-21T02:33:45;12.80;;;11.47;;
11797;SDS011;5956;51.428;6.682;2023-11-21T02:36:11;16.33;;;12.30;;
11797;SDS011;5956;51.428;6.682;2023-11-21T02:38:38;17.67;;;12.60;;
11797;SDS011;5956;51.428;6.682;2023-11-21T02:41:05;17.00;;;12.13;;
11797;SDS011;5956;51.428;6.682;2023-11-21T02:43:32;16.67;;;12.97;;
11797;SDS011;5956;51.428;6.682;2023-11-21T02:45:59;22.27;;;14.97;;
11797;SDS011;5956;51.428;6.682;2023-11-21T02:48:25;18.97;;;14.50;;
11797;SDS011;5956;51.428;6.682;2023-11-21T02:50:52;17.30;;;13.83;;
11797;SDS011;5956;51.428;6.682;2023-11-21T02:53:18;17.43;;;13.60;;
11797;SDS011;5956;51.428;6.682;2023-11-21T02:55:45;18.53;;;13.70;;
11797;SDS011;5956;51.428;6.682;2023-11-21T02:58:13;19.90;;;14.10;;
11797;SDS011;5956;51.428;6.682;2023-11-21T03:00:39;18.73;;;14.50;;
11797;SDS011;5956;51.428;6.682;2023-11-21T03:03:07;19.17;;;15.60;;
11797;SDS011;5956;51.428;6.682;2023-11-21T03:05:34;19.17;;;14.43;;
11797;SDS011;5956;51.428;6.682;2023-11-21T03:08:00;16.80;;;14.93;;
11797;SDS011;5956;51.428;6.682;2023-11-21T03:10:27;17.43;;;14.37;;
11797;SDS011;5956;51.428;6.682;2023-11-21T03:12:53;20.67;;;15.60;;
11797;SDS011;5956;51.428;6.682;2023-11-21T03:15:21;21.73;;;16.73;;
11797;SDS011;5956;51.428;6.682;2023-11-21T03:17:47;20.00;;;16.07;;
11797;SDS011;5956;51.428;6.682;2023-11-21T03:20:15;21.90;;;15.43;;
11797;SDS011;5956;51.428;6.682;2023-11-21T03:22:41;19.87;;;15.27;;
11797;SDS011;5956;51.428;6.682;2023-11-21T03:25:08;19.67;;;16.03;;
11797;SDS011;5956;51.428;6.682;2023-11-21T03:27:36;19.50;;;15.33;;
11797;SDS011;5956;51.428;6.682;2023-11-21T03:30:04;18.73;;;15.23;;
11797;SDS011;5956;51.428;6.682;2023-11-21T03:32:33;22.20;;;15.97;;
11797;SDS011;5956;51.428;6.682;2023-11-21T03:35:00;21.10;;;15.53;;
11797;SDS011;5956;51.428;6.682;2023-11-21T03:37:27;19.60;;;16.40;;
11797;SDS011;5956;51.428;6.682;2023-11-21T03:39:54;19.70;;;16.73;;
11797;SDS011;5956;51.428;6.682;2023-11-21T03:42:21;24.63;;;17.50;;
11797;SDS011;5956;51.428;6.682;2023-11-21T03:44:47;20.20;;;16.30;;
11797;SDS011;5956;51.428;6.682;2023-11-21T03:47:14;20.77;;;15.97;;
11797;SDS011;5956;51.428;6.682;2023-11-21T03:49:42;25.67;;;16.60;;
11797;SDS011;5956;51.428;6.682;2023-11-21T03:52:08;17.70;;;14.97;;
11797;SDS011;5956;51.428;6.682;2023-11-21T03:54:35;25.67;;;16.87;;
11797;SDS011;5956;51.428;6.682;2023-11-21T03:57:02;19.53;;;16.47;;
11797;SDS011;5956;51.428;6.682;2023-11-21T03:59:29;18.43;;;15.43;;
11797;SDS011;5956;51.428;6.682;2023-11-21T04:01:55;19.57;;;15.50;;
11797;SDS011;5956;51.428;6.682;2023-11-21T04:04:22;19.83;;;15.47;;
11797;SDS011;5956;51.428;6.682;2023-11-21T04:06:50;21.40;;;16.47;;
11797;SDS011;5956;51.428;6.682;2023-11-21T04:09:17;17.97;;;14.80;;
11797;SDS011;5956;51.428;6.682;2023-11-21T04:11:44;18.63;;;15.53;;
11797;SDS011;5956;51.428;6.682;2023-11-21T04:14:11;22.13;;;15.17;;
11797;SDS011;5956;51.428;6.682;2023-11-21T04:16:37;18.40;;;15.20;;
11797;SDS011;5956;51.428;6.682;2023-11-21T04:19:04;19.97;;;16.43;;
11797;SDS011;5956;51.428;6.682;2023-11-21T04:21:30;19.47;;;15.90;;
11797;SDS011;5956;51.428;6.682;2023-11-21T04:23:58;18.77;;;15.27;;
11797;SDS011;5956;51.428;6.682;2023-11-21T04:26:24;17.83;;;15.93;;
11797;SDS011;5956;51.428;6.682;2023-11-21T04:28:51;20.67;;;16.00;;
11797;SDS011;5956;51.428;6.682;2023-11-21T04:31:17;19.57;;;15.53;;
11797;SDS011;5956;51.428;6.682;2023-11-21T04:33:44;18.83;;;16.03;;
11797;SDS011;5956;51.428;6.682;2023-11-21T04:36:11;17.67;;;15.40;;
11797;SDS011;5956;51.428;6.682;2023-11-21T04:38:37;19.97;;;16.77;;
11797;SDS011;5956;51.428;6.682;2023-11-21T04:41:05;17.60;;;15.03;;
11797;SDS011;5956;51.428;6.682;2023-11-21T04:43:32;22.37;;;15.83;;
11797;SDS011;5956;51.428;6.682;2023-11-21T04:45:58;18.03;;;14.30;;
11797;SDS011;5956;51.428;6.682;2023-11-21T04:48:24;17.77;;;15.60;;
11797;SDS011;5956;51.428;6.682;2023-11-21T04:50:50;18.57;;;14.90;;
11797;SDS011;5956;51.428;6.682;2023-11-21T04:53:17;16.93;;;14.80;;
11797;SDS011;5956;51.428;6.682;2023-11-21T04:55:43;19.90;;;15.17;;
11797;SDS011;5956;51.428;6.682;2023-11-21T04:58:12;17.47;;;15.03;;
11797;SDS011;5956;51.428;6.682;2023-11-21T05:00:38;16.63;;;14.87;;
11797;SDS011;5956;51.428;6.682;2023-11-21T05:03:06;22.40;;;15.70;;
11797;SDS011;5956;51.428;6.682;2023-11-21T05:05:33;17.63;;;14.53;;
11797;SDS011;5956;51.428;6.682;2023-11-21T05:07:59;21.67;;;15.33;;
11797;SDS011;5956;51.428;6.682;2023-11-21T05:10:27;19.90;;;15.10;;
11797;SDS011;5956;51.428;6.682;2023-11-21T05:12:54;18.03;;;14.60;;
11797;SDS011;5956;51.428;6.682;2023-11-21T05:15:22;18.87;;;15.10;;
11797;SDS011;5956;51.428;6.682;2023-11-21T05:17:50;19.97;;;14.70;;
11797;SDS011;5956;51.428;6.682;2023-11-21T05:20:17;17.17;;;15.10;;
11797;SDS011;5956;51.428;6.682;2023-11-21T05:22:46;19.80;;;15.27;;
11797;SDS011;5956;51.428;6.682;2023-11-21T05:25:13;21.30;;;15.90;;
11797;SDS011;5956;51.428;6.682;2023-11-21T05:27:40;21.53;;;15.90;;
11797;SDS011;5956;51.428;6.682;2023-11-21T05:30:06;21.83;;;17.47;;
11797;SDS011;5956;51.428;6.682;2023-11-21T05:32:38;23.40;;;18.67;;
11797;SDS011;5956;51.428;6.682;2023-11-21T05:35:05;25.63;;;17.80;;
11797;SDS011;5956;51.428;6.682;2023-11-21T05:37:34;24.37;;;18.30;;
11797;SDS011;5956;51.428;6.682;2023-11-21T05:40:01;26.10;;;20.30;;
11797;SDS011;5956;51.428;6.682;2023-11-21T05:42:30;28.20;;;21.10;;
11797;SDS011;5956;51.428;6.682;2023-11-21T05:44:57;33.30;;;22.20;;
11797;SDS011;5956;51.428;6.682;2023-11-21T05:47:24;32.03;;;23.07;;
11797;SDS011;5956;51.428;6.682;2023-11-21T05:49:52;34.07;;;24.57;;
11797;SDS011;5956;51.428;6.682;2023-11-21T05:52:19;33.67;;;24.23;;
11797;SDS011;5956;51.428;6.682;2023-11-21T05:54:46;34.33;;;24.30;;
11797;SDS011;5956;51.428;6.682;2023-11-21T05:57:12;35.67;;;26.03;;
11797;SDS011;5956;51.428;6.682;2023-11-21T05:59:39;38.13;;;24.97;;
11797;SDS011;5956;51.428;6.682;2023-11-21T06:02:06;37.70;;;25.07;;
11797;SDS011;5956;51.428;6.682;2023-11-21T06:04:33;37.70;;;23.33;;
11797;SDS011;5956;51.428;6.682;2023-11-21T06:07:01;34.10;;;22.90;;
11797;SDS011;5956;51.428;6.682;2023-11-21T06:09:27;36.93;;;24.10;;
11797;SDS011;5956;51.428;6.682;2023-11-21T06:11:54;36.87;;;24.57;;
11797;SDS011;5956;51.428;6.682;2023-11-21T06:14:20;34.17;;;23.63;;
11797;SDS011;5956;51.428;6.682;2023-11-21T06:16:47;39.43;;;26.17;;
11797;SDS011;5956;51.428;6.682;2023-11-21T06:19:16;36.10;;;24.60;;
11797;SDS011;5956;51.428;6.682;2023-11-21T06:21:45;37.87;;;24.97;;
11797;SDS011;5956;51.428;6.682;2023-11-21T06:24:12;39.97;;;26.90;;
11797;SDS011;5956;51.428;6.682;2023-11-21T06:26:40;41.93;;;26.10;;
11797;SDS011;5956;51.428;6.682;2023-11-21T06:29:08;42.40;;;26.77;;
11797;SDS011;5956;51.428;6.682;2023-11-21T06:31:36;43.60;;;26.50;;
11797;SDS011;5956;51.428;6.682;2023-11-21T06:34:02;42.03;;;26.40;;
11797;SDS011;5956;51.428;6.682;2023-11-21T06:36:29;35.80;;;24.57;;
11797;SDS011;5956;51.428;6.682;2023-11-21T06:38:56;41.93;;;25.93;;
11797;SDS011;5956;51.428;6.682;2023-11-21T06:41:23;41.53;;;26.63;;
11797;SDS011;5956;51.428;6.682;2023-11-21T06:43:50;37.90;;;26.07;;
11797;SDS011;5956;51.428;6.682;2023-11-21T06:46:15;40.80;;;25.67;;
11797;SDS011;5956;51.428;6.682;2023-11-21T06:48:42;40.37;;;26.90;;
11797;SDS011;5956;51.428;6.682;2023-11-21T06:51:09;43.87;;;27.83;;
11797;SDS011;5956;51.428;6.682;2023-11-21T06:53:36;38.53;;;25.63;;
11797;SDS011;5956;51.428;6.682;2023-11-21T06:56:02;39.70;;;25.27;;
11797;SDS011;5956;51.428;6.682;2023-11-21T06:58:30;35.03;;;26.23;;
11797;SDS011;5956;51.428;6.682;2023-11-21T07:00:58;34.00;;;24.23;;
11797;SDS011;5956;51.428;6.682;2023-11-21T07:03:25;36.50;;;24.87;;
11797;SDS011;5956;51.428;6.682;2023-11-21T07:05:51;35.73;;;24.17;;
11797;SDS011;5956;51.428;6.682;2023-11-21T07:08:18;39.07;;;26.40;;
11797;SDS011;5956;51.428;6.682;2023-11-21T07:10:44;37.30;;;24.43;;
11797;SDS011;5956;51.428;6.682;2023-11-21T07:13:12;42.53;;;26.33;;
11797;SDS011;5956;51.428;6.682;2023-11-21T07:15:40;36.70;;;24.17;;
11797;SDS011;5956;51.428;6.682;2023-11-21T07:18:06;42.13;;;25.70;;
11797;SDS011;5956;51.428;6.682;2023-11-21T07:20:33;42.93;;;26.90;;
11797;SDS011;5956;51.428;6.682;2023-11-21T07:23:00;41.43;;;26.23;;
11797;SDS011;5956;51.428;6.682;2023-11-21T07:25:26;41.30;;;26.20;;
11797;SDS011;5956;51.428;6.682;2023-11-21T07:27:56;41.30;;;26.90;;
11797;SDS011;5956;51.428;6.682;2023-11-21T07:30:23;38.60;;;24.70;;
11797;SDS011;5956;51.428;6.682;2023-11-21T07:32:51;38.87;;;25.33;;
11797;SDS011;5956;51.428;6.682;2023-11-21T07:35:17;42.07;;;24.87;;
11797;SDS011;5956;51.428;6.682;2023-11-21T07:37:44;43.80;;;27.87;;
11797;SDS011;5956;51.428;6.682;2023-11-21T07:40:12;44.23;;;26.40;;
11797;SDS011;5956;51.428;6.682;2023-11-21T07:42:39;40.60;;;25.07;;
11797;SDS011;5956;51.428;6.682;2023-11-21T07:45:08;40.37;;;26.93;;
11797;SDS011;5956;51.428;6.682;2023-11-21T07:47:34;34.87;;;23.87;;
11797;SDS011;5956;51.428;6.682;2023-11-21T07:50:03;35.60;;;24.13;;
11797;SDS011;5956;51.428;6.682;2023-11-21T07:52:30;35.93;;;22.97;;
11797;SDS011;5956;51.428;6.682;2023-11-21T07:54:56;32.50;;;22.43;;
11797;SDS011;5956;51.428;6.682;2023-11-21T07:57:23;31.20;;;22.23;;
11797;SDS011;5956;51.428;6.682;2023-11-21T07:59:49;30.53;;;22.63;;
11797;SDS011;5956;51.428;6.682;2023-11-21T08:02:18;34.27;;;22.97;;
11797;SDS011;5956;51.428;6.682;2023-11-21T08:04:45;31.03;;;22.87;;
11797;SDS011;5956;51.428;6.682;2023-11-21T08:07:15;35.93;;;23.17;;
11797;SDS011;5956;51.428;6.682;2023-11-21T08:09:42;30.90;;;22.67;;
11797;SDS011;5956;51.428;6.682;2023-11-21T08:12:09;29.23;;;22.23;;
11797;SDS011;5956;51.428;6.682;2023-11-21T08:14:36;35.30;;;23.17;;
11797;SDS011;5956;51.428;6.682;2023-11-21T08:17:04;34.80;;;23.57;;
11797;SDS011;5956;51.428;6.682;2023-11-21T08:19:30;36.70;;;23.70;;
11797;SDS011;5956;51.428;6.682;2023-11-21T08:21:58;31.67;;;23.27;;
11797;SDS011;5956;51.428;6.682;2023-11-21T08:24:26;33.50;;;23.27;;
11797;SDS011;5956;51.428;6.682;2023-11-21T08:26:53;34.60;;;24.50;;
11797;SDS011;5956;51.428;6.682;2023-11-21T08:29:19;45.73;;;31.53;;
11797;SDS011;5956;51.428;6.682;2023-11-21T08:31:46;12.13;;;10.13;;
11797;SDS011;5956;51.428;6.682;2023-11-21T08:34:13;35.60;;;24.80;;
11797;SDS011;5956;51.428;6.682;2023-11-21T08:36:41;35.50;;;22.93;;
11797;SDS011;5956;51.428;6.682;2023-11-21T08:39:07;22.47;;;17.37;;
11797;SDS011;5956;51.428;6.682;2023-11-21T08:41:36;24.60;;;16.53;;
11797;SDS011;5956;51.428;6.682;2023-11-21T08:44:02;18.90;;;14.40;;
11797;SDS011;5956;51.428;6.682;2023-11-21T08:46:32;18.13;;;14.20;;
11797;SDS011;5956;51.428;6.682;2023-11-21T08:48:59;27.83;;;19.60;;
11797;SDS011;5956;51.428;6.682;2023-11-21T08:51:25;23.60;;;18.50;;
11797;SDS011;5956;51.428;6.682;2023-11-21T08:53:51;22.20;;;18.47;;
11797;SDS011;5956;51.428;6.682;2023-11-21T08:56:18;24.50;;;18.57;;
11797;SDS011;5956;51.428;6.682;2023-11-21T08:58:46;22.23;;;18.17;;
11797;SDS011;5956;51.428;6.682;2023-11-21T09:01:15;25.50;;;20.17;;
11797;SDS011;5956;51.428;6.682;2023-11-21T09:03:42;25.70;;;19.47;;
11797;SDS011;5956;51.428;6.682;2023-11-21T09:06:09;25.93;;;19.27;;
11797;SDS011;5956;51.428;6.682;2023-11-21T09:08:35;26.63;;;19.13;;
11797;SDS011;5956;51.428;6.682;2023-11-21T09:11:03;29.23;;;20.70;;
11797;SDS011;5956;51.428;6.682;2023-11-21T09:13:29;31.27;;;21.47;;
11797;SDS011;5956;51.428;6.682;2023-11-21T09:15:57;28.70;;;20.33;;
11797;SDS011;5956;51.428;6.682;2023-11-21T09:18:23;29.30;;;21.73;;
11797;SDS011;5956;51.428;6.682;2023-11-21T09:20:50;28.00;;;20.13;;
11797;SDS011;5956;51.428;6.682;2023-11-21T09:23:16;29.40;;;19.57;;
11797;SDS011;5956;51.428;6.682;2023-11-21T09:25:43;27.23;;;19.83;;
11797;SDS011;5956;51.428;6.682;2023-11-21T09:28:11;24.43;;;18.40;;
11797;SDS011;5956;51.428;6.682;2023-11-21T09:30:38;26.00;;;18.37;;
11797;SDS011;5956;51.428;6.682;2023-11-21T09:33:06;29.17;;;20.53;;
11797;SDS011;5956;51.428;6.682;2023-11-21T09:35:35;29.63;;;20.30;;
11797;SDS011;5956;51.428;6.682;2023-11-21T09:38:03;29.77;;;21.27;;
11797;SDS011;5956;51.428;6.682;2023-11-21T09:40:30;27.67;;;19.60;;
11797;SDS011;5956;51.428;6.682;2023-11-21T09:42:57;27.50;;;21.10;;
11797;SDS011;5956;51.428;6.682;2023-11-21T09:45:25;29.87;;;21.00;;
11797;SDS011;5956;51.428;6.682;2023-11-21T09:47:53;28.60;;;20.30;;
11797;SDS011;5956;51.428;6.682;2023-11-21T09:50:22;29.33;;;20.77;;
11797;SDS011;5956;51.428;6.682;2023-11-21T09:52:53;28.90;;;20.27;;
11797;SDS011;5956;51.428;6.682;2023-11-21T09:55:20;30.70;;;21.13;;
11797;SDS011;5956;51.428;6.682;2023-11-21T09:57:48;27.23;;;20.70;;
11797;SDS011;5956;51.428;6.682;2023-11-21T10:00:15;27.70;;;19.40;;
11797;SDS011;5956;51.428;6.682;2023-11-21T10:02:43;34.80;;;21.57;;
11797;SDS011;5956;51.428;6.682;2023-11-21T10:05:09;30.27;;;21.27;;
11797;SDS011;5956;51.428;6.682;2023-11-21T10:07:39;34.40;;;21.40;;
11797;SDS011;5956;51.428;6.682;2023-11-21T10:10:06;31.37;;;21.20;;
11797;SDS011;5956;51.428;6.682;2023-11-21T10:12:34;28.77;;;20.83;;
11797;SDS011;5956;51.428;6.682;2023-11-21T10:15:01;30.47;;;21.17;;
11797;SDS011;5956;51.428;6.682;2023-11-21T10:17:31;30.73;;;21.40;;
11797;SDS011;5956;51.428;6.682;2023-11-21T10:20:04;30.87;;;20.80;;
11797;SDS011;5956;51.428;6.682;2023-11-21T10:22:37;27.87;;;21.33;;
11797;SDS011;5956;51.428;6.682;2023-11-21T10:25:05;28.63;;;20.27;;
11797;SDS011;5956;51.428;6.682;2023-11-21T10:27:33;31.43;;;22.20;;
11797;SDS011;5956;51.428;6.682;2023-11-21T10:30:00;28.77;;;20.87;;
11797;SDS011;5956;51.428;6.682;2023-11-21T10:32:27;32.17;;;22.27;;
11797;SDS011;5956;51.428;6.682;2023-11-21T10:34:57;29.60;;;20.97;;
11797;SDS011;5956;51.428;6.682;2023-11-21T10:37:25;27.77;;;20.03;;
11797;SDS011;5956;51.428;6.682;2023-11-21T10:39:55;28.93;;;21.73;;
11797;SDS011;5956;51.428;6.682;2023-11-21T10:42:24;27.43;;;20.90;;
11797;SDS011;5956;51.428;6.682;2023-11-21T10:44:52;29.13;;;20.87;;
11797;SDS011;5956;51.428;6.682;2023-11-21T10:47:19;32.37;;;21.73;;
11797;SDS011;5956;51.428;6.682;2023-11-21T10:49:48;30.43;;;21.37;;
11797;SDS011;5956;51.428;6.682;2023-11-21T10:52:14;31.07;;;21.27;;
11797;SDS011;5956;51.428;6.682;2023-11-21T10:54:42;29.47;;;21.17;;
11797;SDS011;5956;51.428;6.682;2023-11-21T10:57:09;29.23;;;22.00;;
11797;SDS011;5956;51.428;6.682;2023-11-21T10:59:37;29.83;;;21.40;;
11797;SDS011;5956;51.428;6.682;2023-11-21T11:02:07;25.97;;;21.03;;
11797;SDS011;5956;51.428;6.682;2023-11-21T11:04:41;28.37;;;19.90;;
11797;SDS011;5956;51.428;6.682;2023-11-21T11:07:08;28.23;;;20.80;;
11797;SDS011;5956;51.428;6.682;2023-11-21T11:09:37;27.67;;;21.33;;
11797;SDS011;5956;51.428;6.682;2023-11-21T11:12:03;29.43;;;21.93;;
11797;SDS011;5956;51.428;6.682;2023-11-21T11:14:31;30.90;;;22.53;;
11797;SDS011;5956;51.428;6.682;2023-11-21T11:16:59;29.87;;;21.77;;
11797;SDS011;5956;51.428;6.682;2023-11-21T11:19:27;27.23;;;22.50;;
11797;SDS011;5956;51.428;6.682;2023-11-21T11:21:57;30.80;;;23.97;;
11797;SDS011;5956;51.428;6.682;2023-11-21T11:24:49;39.80;;;29.47;;
11797;SDS011;5956;51.428;6.682;2023-11-21T11:27:23;36.33;;;27.73;;
11797;SDS011;5956;51.428;6.682;2023-11-21T11:29:54;36.27;;;27.07;;
11797;SDS011;5956;51.428;6.682;2023-11-21T11:32:27;37.33;;;28.20;;
11797;SDS011;5956;51.428;6.682;2023-11-21T11:34:59;45.07;;;29.57;;
11797;SDS011;5956;51.428;6.682;2023-11-21T11:37:27;38.37;;;28.80;;
11797;SDS011;5956;51.428;6.682;2023-11-21T11:39:54;7.33;;;6.70;;
11797;SDS011;5956;51.428;6.682;2023-11-21T11:42:22;39.47;;;28.90;;
11797;SDS011;5956;51.428;6.682;2023-11-21T11:44:49;41.63;;;29.43;;
11797;SDS011;5956;51.428;6.682;2023-11-21T11:47:21;40.40;;;30.17;;
11797;SDS011;5956;51.428;6.682;2023-11-21T11:50:02;40.53;;;30.53;;
11797;SDS011;5956;51.428;6.682;2023-11-21T11:52:32;38.17;;;28.13;;
11797;SDS011;5956;51.428;6.682;2023-11-21T11:54:59;35.27;;;28.10;;
11797;SDS011;5956;51.428;6.682;2023-11-21T11:57:26;41.07;;;29.63;;
11797;SDS011;5956;51.428;6.682;2023-11-21T12:00:06;34.47;;;25.73;;
11797;SDS011;5956;51.428;6.682;2023-11-21T12:02:35;31.63;;;22.27;;
11797;SDS011;5956;51.428;6.682;2023-11-21T12:05:06;33.20;;;22.83;;
11797;SDS011;5956;51.428;6.682;2023-11-21T12:07:39;40.47;;;24.37;;
11797;SDS011;5956;51.428;6.682;2023-11-21T12:10:07;31.90;;;24.93;;
11797;SDS011;5956;51.428;6.682;2023-11-21T12:12:36;34.47;;;25.60;;
11797;SDS011;5956;51.428;6.682;2023-11-21T12:15:04;32.43;;;24.77;;
11797;SDS011;5956;51.428;6.682;2023-11-21T12:17:31;34.00;;;23.57;;
11797;SDS011;5956;51.428;6.682;2023-11-21T12:20:01;33.57;;;24.03;;
11797;SDS011;5956;51.428;6.682;2023-11-21T12:22:29;34.73;;;23.83;;
11797;SDS011;5956;51.428;6.682;2023-11-21T12:24:56;34.37;;;25.10;;
11797;SDS011;5956;51.428;6.682;2023-11-21T12:27:23;34.73;;;25.17;;
11797;SDS011;5956;51.428;6.682;2023-11-21T12:29:49;32.17;;;25.77;;
11797;SDS011;5956;51.428;6.682;2023-11-21T12:32:16;31.03;;;24.03;;
11797;SDS011;5956;51.428;6.682;2023-11-21T12:34:43;31.10;;;23.97;;
11797;SDS011;5956;51.428;6.682;2023-11-21T12:37:10;31.20;;;23.60;;
11797;SDS011;5956;51.428;6.682;2023-11-21T12:39:38;32.77;;;23.93;;
11797;SDS011;5956;51.428;6.682;2023-11-21T12:42:04;22.90;;;15.00;;
11797;SDS011;5956;51.428;6.682;2023-11-21T12:44:31;37.13;;;25.87;;
11797;SDS011;5956;51.428;6.682;2023-11-21T12:46:58;31.47;;;23.87;;
11797;SDS011;5956;51.428;6.682;2023-11-21T12:49:26;31.53;;;23.13;;
11797;SDS011;5956;51.428;6.682;2023-11-21T12:51:53;28.23;;;22.43;;
11797;SDS011;5956;51.428;6.682;2023-11-21T12:54:20;29.10;;;21.93;;
11797;SDS011;5956;51.428;6.682;2023-11-21T12:56:48;32.07;;;23.33;;
11797;SDS011;5956;51.428;6.682;2023-11-21T12:59:16;29.47;;;21.33;;
11797;SDS011;5956;51.428;6.682;2023-11-21T13:01:44;25.13;;;20.53;;
11797;SDS011;5956;51.428;6.682;2023-11-21T13:04:12;26.53;;;19.97;;
11797;SDS011;5956;51.428;6.682;2023-11-21T13:06:39;27.77;;;20.40;;
11797;SDS011;5956;51.428;6.682;2023-11-21T13:09:07;25.40;;;20.30;;
11797;SDS011;5956;51.428;6.682;2023-11-21T13:11:36;26.23;;;19.70;;
11797;SDS011;5956;51.428;6.682;2023-11-21T13:14:07;23.50;;;19.47;;
11797;SDS011;5956;51.428;6.682;2023-11-21T13:16:36;23.77;;;18.40;;
11797;SDS011;5956;51.428;6.682;2023-11-21T13:19:04;23.27;;;16.20;;
11797;SDS011;5956;51.428;6.682;2023-11-21T13:21:34;21.63;;;15.67;;
11797;SDS011;5956;51.428;6.682;2023-11-21T13:24:01;20.00;;;14.97;;
11797;SDS011;5956;51.428;6.682;2023-11-21T13:26:29;17.37;;;13.50;;
11797;SDS011;5956;51.428;6.682;2023-11-21T13:28:56;16.93;;;14.13;;
11797;SDS011;5956;51.428;6.682;2023-11-21T13:31:26;15.67;;;13.67;;
11797;SDS011;5956;51.428;6.682;2023-11-21T13:33:58;19.47;;;14.37;;
11797;SDS011;5956;51.428;6.682;2023-11-21T13:36:30;19.27;;;13.07;;
11797;SDS011;5956;51.428;6.682;2023-11-21T13:38:58;15.37;;;12.10;;
11797;SDS011;5956;51.428;6.682;2023-11-21T13:41:30;17.17;;;13.40;;
11797;SDS011;5956;51.428;6.682;2023-11-21T13:43:57;14.80;;;12.60;;
11797;SDS011;5956;51.428;6.682;2023-11-21T13:46:35;13.87;;;11.83;;
11797;SDS011;5956;51.428;6.682;2023-11-21T13:49:02;15.10;;;11.57;;
11797;SDS011;5956;51.428;6.682;2023-11-21T13:51:35;13.33;;;11.00;;
11797;SDS011;5956;51.428;6.682;2023-11-21T13:54:06;14.53;;;11.80;;
11797;SDS011;5956;51.428;6.682;2023-11-21T13:56:35;15.43;;;11.13;;
11797;SDS011;5956;51.428;6.682;2023-11-21T13:59:02;11.97;;;10.77;;
11797;SDS011;5956;51.428;6.682;2023-11-21T14:01:40;12.77;;;11.43;;
11797;SDS011;5956;51.428;6.682;2023-11-21T14:04:20;13.73;;;11.10;;
11797;SDS011;5956;51.428;6.682;2023-11-21T14:07:00;15.43;;;12.00;;
11797;SDS011;5956;51.428;6.682;2023-11-21T14:09:43;14.00;;;12.43;;
11797;SDS011;5956;51.428;6.682;2023-11-21T14:12:11;15.17;;;12.27;;
11797;SDS011;5956;51.428;6.682;2023-11-21T14:14:38;13.87;;;12.13;;
11797;SDS011;5956;51.428;6.682;2023-11-21T14:17:07;15.30;;;13.67;;
11797;SDS011;5956;51.428;6.682;2023-11-21T14:19:35;15.40;;;13.77;;
11797;SDS011;5956;51.428;6.682;2023-11-21T14:22:05;16.17;;;13.00;;
11797;SDS011;5956;51.428;6.682;2023-11-21T14:24:33;15.17;;;12.90;;
11797;SDS011;5956;51.428;6.682;2023-11-21T14:26:59;16.33;;;13.87;;
11797;SDS011;5956;51.428;6.682;2023-11-21T14:29:26;18.73;;;14.37;;
11797;SDS011;5956;51.428;6.682;2023-11-21T14:31:55;19.33;;;15.00;;
11797;SDS011;5956;51.428;6.682;2023-11-21T14:34:24;15.53;;;13.30;;
11797;SDS011;5956;51.428;6.682;2023-11-21T14:36:51;16.63;;;13.40;;
11797;SDS011;5956;51.428;6.682;2023-11-21T14:39:18;15.33;;;12.83;;